Time;durP1;ratioP1;P1;durP2;ratioP2;P2;SDS_P1;SDS_P2;PMS_P1;PMS_P2;Temp;Humidity;BMP_temperature;BMP_pressure;BME280_temperature;BME280_humidity;BME280_pressure;Samples;Min_cycle;Max_cycle;Signal;HPM_P1;HPM_P2
2023/10/13 00:02:04;;;;;;;8.48;6.07;;;;;;;16.46;100.00;101116.47;5095608;28;20062;-75
2023/10/13 00:04:32;;;;;;;13.27;9.10;;;;;;;16.44;100.00;101118.34;5076194;28;20064;-75
2023/10/13 00:06:59;;;;;;;10.55;7.72;;;;;;;16.42;100.00;101117.59;5075891;28;20046;-75
2023/10/13 00:09:32;;;;;;;9.40;8.45;;;;;;;16.42;100.00;101112.31;5075589;28;20130;-75
2023/10/13 00:11:57;;;;;;;8.55;7.72;;;;;;;16.42;100.00;101112.31;5076861;28;20052;-75
2023/10/13 00:14:30;;;;;;;10.98;9.35;;;;;;;16.40;100.00;101107.13;5095671;28;20089;-75
2023/10/13 00:17:05;;;;;;;11.90;9.48;;;;;;;16.41;100.00;101103.53;5095337;28;20031;-75
2023/10/13 00:19:53;;;;;;;14.88;10.23;;;;;;;16.41;100.00;101098.25;5095171;28;20040;-75
2023/10/13 00:22:22;;;;;;;19.88;11.52;;;;;;;16.39;100.00;101094.00;5094995;28;20039;-75
2023/10/13 00:24:50;;;;;;;15.32;11.38;;;;;;;16.39;100.00;101100.16;5090006;28;20064;-75
2023/10/13 00:27:30;;;;;;;12.13;9.75;;;;;;;16.40;100.00;101099.19;5095700;28;20059;-75
2023/10/13 00:30:17;;;;;;;16.65;11.95;;;;;;;16.39;100.00;101088.69;5095437;28;20050;-75
2023/10/13 00:32:44;;;;;;;13.05;10.82;;;;;;;16.39;100.00;101089.56;5094637;28;20031;-75
2023/10/13 00:35:24;;;;;;;11.52;10.38;;;;;;;16.39;100.00;101086.94;5095263;28;20036;-75
2023/10/13 00:37:57;;;;;;;17.75;12.73;;;;;;;16.40;100.00;101091.25;5094888;28;20319;-75
2023/10/13 00:45:57;;;;;;;16.75;12.85;;;;;;;16.38;100.00;101068.53;5074758;28;20036;-76
2023/10/13 00:48:34;;;;;;;19.65;12.30;;;;;;;16.38;100.00;101073.81;5075339;28;20108;-75
2023/10/13 00:51:06;;;;;;;15.73;12.00;;;;;;;16.37;100.00;101065.03;5074445;28;20048;-76
2023/10/13 00:53:39;;;;;;;16.20;12.25;;;;;;;16.37;100.00;101067.69;5074304;28;20051;-76
2023/10/13 00:56:18;;;;;;;15.57;11.18;;;;;;;16.39;100.00;101054.34;5074902;28;20091;-76
2023/10/13 00:58:44;;;;;;;;;;;;;;;16.35;100.00;101051.03;5075001;28;20336;-75
2023/10/13 01:01:18;;;;;;;12.90;10.90;;;;;;;16.37;100.00;101048.31;5074806;28;19943;-76
2023/10/13 01:03:55;;;;;;;12.43;10.55;;;;;;;16.38;100.00;101042.09;5074342;28;20092;-75
2023/10/13 01:06:26;;;;;;;18.35;12.23;;;;;;;16.36;100.00;101034.25;5074907;28;20032;-76
2023/10/13 01:09:13;;;;;;;14.77;11.50;;;;;;;16.35;100.00;101034.34;5075012;28;20032;-75
2023/10/13 01:11:47;;;;;;;15.98;10.82;;;;;;;16.34;100.00;101032.66;5074467;28;20414;-75
2023/10/13 01:14:17;;;;;;;15.45;10.60;;;;;;;16.34;100.00;101019.44;5073384;28;20048;-75
2023/10/13 01:16:46;;;;;;;13.57;10.25;;;;;;;16.31;100.00;101026.59;5073986;28;20044;-75
2023/10/13 01:19:19;;;;;;;16.48;9.95;;;;;;;16.31;100.00;101025.75;5074868;28;20037;-75
2023/10/13 01:21:47;;;;;;;12.02;9.45;;;;;;;16.29;100.00;101017.91;5074028;28;20048;-76
2023/10/13 01:24:17;;;;;;;11.13;9.85;;;;;;;16.30;100.00;101022.28;5074876;28;20070;-75
2023/10/13 01:26:43;;;;;;;11.23;9.50;;;;;;;16.31;100.00;101012.53;5073909;28;20339;-76
2023/10/13 01:29:13;;;;;;;10.20;8.60;;;;;;;16.33;100.00;101007.16;5075061;28;20037;-75
2023/10/13 01:31:45;;;;;;;16.77;10.60;;;;;;;16.30;100.00;101008.22;5073936;28;20047;-75
2023/10/13 01:34:21;;;;;;;10.50;8.50;;;;;;;16.31;100.00;101002.81;5080475;28;20024;-75
2023/10/13 01:36:51;;;;;;;14.07;9.73;;;;;;;16.31;100.00;101005.44;5094066;28;20036;-75
2023/10/13 01:39:26;;;;;;;8.90;8.00;;;;;;;16.32;100.00;101003.69;5094293;28;20109;-75
2023/10/13 01:41:55;;;;;;;11.90;8.73;;;;;;;16.32;100.00;101001.03;5094396;28;20313;-75
2023/10/13 01:44:21;;;;;;;17.58;9.70;;;;;;;16.31;100.00;100997.53;5094536;28;20284;-75
2023/10/13 01:46:47;;;;;;;13.27;8.82;;;;;;;16.31;100.00;100986.94;5093313;28;20040;-75
2023/10/13 01:49:15;;;;;;;14.70;9.02;;;;;;;16.31;100.00;100989.59;5094818;28;20367;-75
2023/10/13 01:51:40;;;;;;;13.32;8.55;;;;;;;16.31;100.00;100986.94;5094075;28;20036;-75
2023/10/13 01:54:11;;;;;;;14.02;9.07;;;;;;;16.30;100.00;100979.97;5094566;28;20032;-75
2023/10/13 01:56:42;;;;;;;9.55;7.50;;;;;;;16.32;100.00;100971.97;5094289;28;20095;-75
2023/10/13 01:59:09;;;;;;;11.88;7.97;;;;;;;16.32;100.00;100969.31;5094505;28;20031;-75
2023/10/13 02:01:35;;;;;;;16.10;9.35;;;;;;;16.30;100.00;100958.84;5093904;28;20441;-75
2023/10/13 02:04:04;;;;;;;9.07;8.20;;;;;;;16.31;100.00;100955.25;5097097;28;20254;-75
2023/10/13 02:06:36;;;;;;;12.65;8.27;;;;;;;16.28;100.00;100942.25;5097659;28;20032;-75
2023/10/13 02:09:13;;;;;;;8.00;7.22;;;;;;;16.28;100.00;100936.97;5098375;28;20065;-75
2023/10/13 02:11:41;;;;;;;13.05;8.35;;;;;;;16.29;100.00;100940.44;5097661;28;20036;-75
2023/10/13 02:14:07;;;;;;;13.52;8.55;;;;;;;16.27;100.00;100929.13;5098023;28;20111;-75
2023/10/13 02:16:33;;;;;;;11.98;8.40;;;;;;;16.27;100.00;100929.13;5097480;28;20032;-75
2023/10/13 02:19:04;;;;;;;12.55;9.27;;;;;;;16.26;100.00;100925.63;5098054;28;20044;-75
2023/10/13 02:21:31;;;;;;;9.38;8.35;;;;;;;16.27;100.00;100922.03;5097664;28;20027;-75
2023/10/13 02:24:03;;;;;;;13.00;8.93;;;;;;;16.25;100.00;100923.09;5097918;28;20113;-75
2023/10/13 02:26:31;;;;;;;10.98;8.60;;;;;;;16.25;100.00;100923.09;5097497;28;20317;-75
2023/10/13 02:29:07;;;;;;;13.98;9.55;;;;;;;16.25;100.00;100921.28;5098237;28;20039;-75
2023/10/13 02:31:34;;;;;;;11.50;9.45;;;;;;;16.23;100.00;100912.59;5097272;28;20388;-75
2023/10/13 02:34:01;;;;;;;11.93;8.90;;;;;;;16.23;100.00;100898.56;5097883;28;20219;-75
2023/10/13 02:37:09;;;;;;;13.45;9.13;;;;;;;16.23;100.00;100894.13;5097183;28;20708;-75
2023/10/13 02:39:24;;;;;;;;;;;;;;;16.25;100.00;100886.94;5097495;28;20130;-75
2023/10/13 02:41:49;;;;;;;11.15;8.07;;;;;;;16.23;100.00;100885.34;5096724;28;19971;-76
2023/10/13 02:44:28;;;;;;;12.65;7.38;;;;;;;16.22;100.00;100871.25;5097510;28;20259;-76
2023/10/13 02:46:55;;;;;;;;;;;;;;;16.22;100.00;100870.44;5097455;28;20089;-75
2023/10/13 02:49:26;;;;;;;12.63;8.15;;;;;;;16.21;100.00;100866.94;5097614;28;19912;-76
2023/10/13 02:51:52;;;;;;;8.10;7.30;;;;;;;16.21;100.00;100864.31;5097309;28;20036;-75
2023/10/13 02:54:18;;;;;;;11.07;7.63;;;;;;;16.21;100.00;100863.44;5097798;28;20028;-76
2023/10/13 02:57:27;;;;;;;13.55;7.50;;;;;;;16.19;100.00;100860.91;5096571;28;20050;-75
2023/10/13 03:00:12;;;;;;;11.35;6.63;;;;;;;16.19;100.00;100858.28;5093687;28;20036;-75
2023/10/13 03:02:29;;;;;;;12.65;7.15;;;;;;;16.18;100.00;100851.28;5095322;28;20208;-75
2023/10/13 03:04:59;;;;;;;12.77;6.93;;;;;;;16.16;100.00;100849.69;5097131;28;20055;-75
2023/10/13 03:07:28;;;;;;;8.82;6.65;;;;;;;16.19;100.00;100845.06;5097176;28;20036;-75
2023/10/13 03:09:57;;;;;;;7.35;5.57;;;;;;;16.19;100.00;100830.97;5097383;28;20269;-75
2023/10/13 03:12:24;;;;;;;15.00;6.85;;;;;;;16.16;100.00;100813.53;5096911;28;20023;-75
2023/10/13 03:15:12;;;;;;;13.98;6.78;;;;;;;16.15;100.00;100792.50;5095659;28;20031;-75
2023/10/13 03:17:43;;;;;;;7.47;5.57;;;;;;;16.15;100.00;100788.06;5095954;28;20282;-75
2023/10/13 03:20:16;;;;;;;5.75;5.25;;;;;;;16.15;100.00;100782.78;5096714;28;20239;-75
2023/10/13 03:22:44;;;;;;;5.65;5.15;;;;;;;16.14;100.00;100783.75;5094682;28;20355;-75
2023/10/13 03:25:17;;;;;;;;;;;;;;;16.15;100.00;100779.28;5097288;28;20103;-75
2023/10/13 03:30:17;;;;;;;8.13;4.43;;;;;;;16.09;100.00;100765.53;5096508;28;20063;-75
2023/10/13 03:32:46;;;;;;;5.57;3.50;;;;;;;16.10;100.00;100753.19;5096263;28;20031;-75
2023/10/13 03:35:23;;;;;;;5.57;3.63;;;;;;;16.09;100.00;100736.47;5096687;28;20235;-75
2023/10/13 03:37:49;;;;;;;6.75;3.65;;;;;;;16.07;100.00;100733.09;5095616;28;20270;-75
2023/10/13 03:45:24;;;;;;;4.50;4.10;;;;;;;16.08;100.00;100716.31;5096472;28;20040;-75
2023/10/13 03:47:53;;;;;;;9.43;5.60;;;;;;;16.06;100.00;100720.84;5095572;28;20259;-75
2023/10/13 03:50:32;;;;;;;10.10;5.40;;;;;;;16.04;100.00;100698.94;5096291;28;20035;-75
2023/10/13 03:52:58;;;;;;;7.32;5.13;;;;;;;16.04;100.00;100691.00;5095987;28;20036;-75
2023/10/13 03:55:27;;;;;;;6.10;5.00;;;;;;;16.04;100.00;100703.38;5095762;28;20036;-75
2023/10/13 03:58:00;;;;;;;8.25;5.25;;;;;;;16.03;100.00;100702.53;5095711;28;20389;-75
2023/10/13 04:00:27;;;;;;;5.20;4.70;;;;;;;16.03;100.00;100707.00;5096136;28;20194;-75
2023/10/13 04:05:38;;;;;;;8.70;5.35;;;;;;;16.05;100.00;100705.09;5095388;28;20035;-75
2023/10/13 04:19:07;;;;;;;6.20;5.60;;;;;;;16.08;100.00;100689.88;5094959;28;20091;-75
2023/10/13 04:32:29;;;;;;;11.00;6.22;;;;;;;16.13;100.00;100649.94;5095558;28;20335;-75
2023/10/13 04:35:08;;;;;;;9.68;6.22;;;;;;;16.14;100.00;100654.28;5095596;28;20058;-75
2023/10/13 04:37:49;;;;;;;9.60;6.88;;;;;;;16.16;100.00;100644.47;5094769;28;20032;-75
2023/10/13 04:40:17;;;;;;;11.00;6.68;;;;;;;16.18;100.00;100641.72;5095406;28;20060;-75
2023/10/13 04:42:58;;;;;;;11.23;6.38;;;;;;;16.18;100.00;100652.28;5094318;28;20035;-75
2023/10/13 04:47:58;;;;;;;10.38;5.70;;;;;;;16.21;100.00;100646.78;5075245;28;20095;-75
2023/10/13 04:50:34;;;;;;;7.93;5.60;;;;;;;16.26;100.00;100642.03;5074814;28;20040;-75
2023/10/13 04:53:13;;;;;;;7.03;6.20;;;;;;;16.27;100.00;100649.03;5075137;28;20370;-75
2023/10/13 04:56:07;;;;;;;;;;;;;;;16.29;100.00;100641.84;5082800;28;20035;-76
2023/10/13 05:50:13;;;;;;;7.72;4.57;;;;;;;16.09;100.00;100558.66;5098451;28;20069;-75
2023/10/13 06:28:51;;;;;;;10.35;6.15;;;;;;;16.18;100.00;100484.03;5092306;28;20369;-74
2023/10/13 06:31:01;;;;;;;14.30;6.53;;;;;;;16.21;100.00;100480.31;5090857;28;20047;-75
2023/10/13 06:33:28;;;;;;;13.10;8.43;;;;;;;16.21;100.00;100475.91;5085827;28;20084;-75
2023/10/13 06:35:57;;;;;;;16.50;7.53;;;;;;;16.23;100.00;100465.25;5088705;28;20063;-75
2023/10/13 06:38:24;;;;;;;18.00;8.20;;;;;;;16.24;100.00;100462.47;5087008;28;20050;-75
2023/10/13 06:40:52;;;;;;;16.15;9.48;;;;;;;16.25;100.00;100456.25;5084122;28;20039;-75
2023/10/13 06:43:21;;;;;;;;;;;;;;;16.26;100.00;100462.38;5079224;28;20286;-75
2023/10/13 06:45:56;;;;;;;10.73;7.93;;;;;;;16.30;100.00;100458.56;5086989;28;19916;-75
2023/10/13 06:48:26;;;;;;;17.17;9.35;;;;;;;16.32;100.00;100454.03;5080990;28;20032;-75
2023/10/13 06:50:52;;;;;;;17.08;9.00;;;;;;;16.35;100.00;100442.38;5082061;28;20040;-75
2023/10/13 06:53:21;;;;;;;13.20;7.43;;;;;;;16.35;100.00;100435.28;5091260;28;20027;-75
2023/10/13 06:55:48;;;;;;;13.48;8.35;;;;;;;16.35;100.00;100432.63;5086045;28;20115;-75
2023/10/13 06:58:14;;;;;;;12.48;7.50;;;;;;;16.38;100.00;100440.34;5080132;28;20044;-75
2023/10/13 07:00:52;;;;;;;9.73;7.28;;;;;;;16.39;100.00;100433.28;5082013;28;20212;-75
2023/10/13 07:03:19;;;;;;;13.07;7.68;;;;;;;16.41;100.00;100420.78;5089789;28;20103;-75
2023/10/13 07:05:47;;;;;;;15.57;7.70;;;;;;;16.41;100.00;100431.34;5085595;28;20374;-75
2023/10/13 07:08:19;;;;;;;10.07;6.68;;;;;;;16.43;100.00;100446.16;5089159;28;20039;-75
2023/10/13 07:10:52;;;;;;;10.45;7.03;;;;;;;16.44;100.00;100454.94;5089557;28;20043;-75
2023/10/13 07:13:19;;;;;;;19.10;7.88;;;;;;;16.45;100.00;100446.06;5088815;28;20037;-75
2023/10/13 07:15:45;;;;;;;22.05;8.07;;;;;;;16.45;100.00;100449.53;5087730;28;20216;-75
2023/10/13 07:18:17;;;;;;;11.38;7.32;;;;;;;16.48;100.00;100444.03;5087748;28;20228;-75
2023/10/13 07:20:45;;;;;;;11.38;7.70;;;;;;;16.49;100.00;100439.59;5084867;28;20044;-75
2023/10/13 07:23:20;;;;;;;21.30;8.00;;;;;;;16.49;100.00;100434.31;5094918;28;20030;-75
2023/10/13 07:26:02;;;;;;;15.25;7.53;;;;;;;16.51;100.00;100432.41;5080306;28;20540;-75
2023/10/13 07:28:35;;;;;;;11.82;7.30;;;;;;;16.53;100.00;100424.34;5094843;28;20032;-75
2023/10/13 07:33:33;;;;;;;18.00;7.75;;;;;;;16.55;100.00;100428.56;5086343;28;20040;-75
2023/10/13 07:36:16;;;;;;;16.48;8.02;;;;;;;16.58;100.00;100431.00;5088143;28;20052;-75
2023/10/13 07:38:49;;;;;;;17.35;7.53;;;;;;;16.58;100.00;100407.22;5091746;28;20028;-75
2023/10/13 07:41:17;;;;;;;19.25;7.70;;;;;;;16.59;100.00;100426.53;5083797;28;20350;-75
2023/10/13 07:43:44;;;;;;;;;;;;;;;16.59;100.00;100422.13;5095794;28;20036;-75
2023/10/13 07:46:12;;;;;;;30.10;7.55;;;;;;;16.61;100.00;100414.09;5087227;28;19974;-75
2023/10/13 07:48:38;;;;;;;17.17;6.70;;;;;;;16.62;100.00;100419.25;5084306;28;20075;-75
2023/10/13 07:51:11;;;;;;;17.33;6.75;;;;;;;16.63;100.00;100405.06;5090602;28;20040;-75
2023/10/13 07:53:40;;;;;;;20.95;7.57;;;;;;;16.65;100.00;100403.16;5080010;28;20332;-75
2023/10/13 07:56:08;;;;;;;18.35;7.63;;;;;;;16.65;100.00;100404.97;5093517;28;20047;-75
2023/10/13 07:58:46;;;;;;;15.93;6.70;;;;;;;16.67;100.00;100400.41;5094195;28;20060;-75
2023/10/13 08:01:17;;;;;;;23.17;6.93;;;;;;;16.69;100.00;100407.25;5087561;28;20027;-75
2023/10/13 08:03:45;;;;;;;11.50;6.60;;;;;;;16.71;100.00;100404.50;5094469;28;20036;-75
2023/10/13 08:08:39;;;;;;;12.82;6.90;;;;;;;16.73;100.00;100401.75;5094207;28;20044;-75
2023/10/13 08:11:12;;;;;;;8.63;6.72;;;;;;;16.80;100.00;100408.28;5089612;28;20085;-75
2023/10/13 08:13:40;;;;;;;19.42;6.95;;;;;;;16.79;100.00;100399.53;5078953;28;20440;-75
2023/10/13 08:16:09;;;;;;;15.45;6.57;;;;;;;16.81;100.00;100392.31;5084999;28;20034;-75
2023/10/13 08:18:36;;;;;;;16.45;6.80;;;;;;;16.81;100.00;100402.06;5077824;28;20207;-75
2023/10/13 08:21:15;;;;;;;19.48;7.75;;;;;;;16.80;100.00;100395.91;5088168;28;20209;-75
2023/10/13 08:26:56;;;;;;;22.85;7.05;;;;;;;16.82;100.00;100364.88;5090267;28;20219;-75
2023/10/13 08:32:14;;;;;;;12.68;5.75;;;;;;;16.83;100.00;100368.44;5090660;28;20124;-76
2023/10/13 08:34:59;;;;;;;13.32;5.80;;;;;;;16.81;100.00;100360.56;5083067;28;20364;-75
2023/10/13 08:37:56;;;;;;;23.15;6.50;;;;;;;16.82;100.00;100359.59;5081929;28;20394;-76
2023/10/13 08:43:12;;;;;;;11.85;5.78;;;;;;;16.84;100.00;100370.94;5088942;28;20043;-75
2023/10/13 08:53:31;;;;;;;17.55;5.85;;;;;;;16.88;100.00;100375.06;5084134;28;20082;-75
2023/10/13 08:56:07;;;;;;;16.77;6.05;;;;;;;16.87;100.00;100354.03;5088156;28;20437;-75
2023/10/13 09:12:25;;;;;;;12.55;5.57;;;;;;;16.97;100.00;100330.34;5094462;28;20273;-75
2023/10/13 09:14:58;;;;;;;15.98;6.80;;;;;;;16.98;100.00;100330.25;5096420;28;20343;-75
2023/10/13 09:17:38;;;;;;;20.15;6.78;;;;;;;16.98;100.00;100340.00;5091355;28;20055;-75
2023/10/13 09:25:37;;;;;;;24.53;8.17;;;;;;;17.02;100.00;100322.91;5084464;28;20032;-75
2023/10/13 09:28:14;;;;;;;15.75;6.22;;;;;;;17.02;100.00;100309.69;5084721;28;20024;-75
2023/10/13 09:30:47;;;;;;;16.65;6.70;;;;;;;17.04;100.00;100308.59;5083600;28;20086;-75
2023/10/13 09:33:20;;;;;;;15.52;6.72;;;;;;;17.04;100.00;100308.59;5083673;28;20036;-75
2023/10/13 09:35:50;;;;;;;35.05;7.40;;;;;;;17.04;100.00;100299.84;5086066;28;20042;-75
2023/10/13 09:38:16;;;;;;;18.85;6.88;;;;;;;17.07;100.00;100296.97;5100623;28;20261;-75
2023/10/13 09:40:49;;;;;;;12.18;6.20;;;;;;;17.11;100.00;100308.16;5096034;28;20028;-76
2023/10/13 09:43:21;;;;;;;15.30;6.43;;;;;;;17.15;100.00;100302.50;5096981;28;20102;-75
2023/10/13 09:48:32;;;;;;;17.27;6.25;;;;;;;17.17;100.00;100289.16;5095530;28;20043;-75
2023/10/13 09:51:02;;;;;;;12.55;6.32;;;;;;;17.19;100.00;100303.09;5096359;28;20028;-75
2023/10/13 09:53:29;;;;;;;21.70;6.38;;;;;;;17.19;100.00;100289.88;5099567;28;20095;-75
2023/10/13 09:56:19;;;;;;;15.52;6.20;;;;;;;17.19;100.00;100282.78;5084681;28;20044;-75
2023/10/13 09:59:12;;;;;;;11.18;6.10;;;;;;;17.23;100.00;100283.41;5094383;28;20032;-75
2023/10/13 10:01:50;;;;;;;17.67;6.45;;;;;;;17.25;100.00;100282.31;5083901;28;20048;-75
2023/10/13 10:04:18;;;;;;;18.63;6.22;;;;;;;17.27;100.00;100280.38;5089936;28;20019;-75
2023/10/13 10:06:54;;;;;;;12.90;6.13;;;;;;;17.33;100.00;100283.53;5096229;28;20036;-75
2023/10/13 10:09:30;;;;;;;13.32;6.10;;;;;;;17.36;100.00;100262.94;5089070;28;20032;-75
2023/10/13 10:12:33;;;;;;;15.50;6.30;;;;;;;17.41;100.00;100270.53;5094319;28;20095;-75
2023/10/13 10:15:01;;;;;;;20.90;7.60;;;;;;;17.44;100.00;100262.34;5092206;28;20040;-76
2023/10/13 10:17:29;;;;;;;16.65;6.20;;;;;;;17.49;100.00;100251.41;5091379;28;20039;-76
2023/10/13 10:19:59;;;;;;;24.38;6.25;;;;;;;17.49;100.00;100264.63;5086624;28;20063;-76
2023/10/13 10:22:35;;;;;;;21.25;6.70;;;;;;;17.53;100.00;100274.00;5093668;28;20035;-76
2023/10/13 10:25:02;;;;;;;16.63;6.43;;;;;;;17.53;100.00;100264.25;5089070;28;20040;-76
2023/10/13 10:27:30;;;;;;;13.35;6.75;;;;;;;17.56;100.00;100274.63;5094469;28;20286;-76
2023/10/13 10:29:57;;;;;;;12.77;6.72;;;;;;;17.57;100.00;100275.44;5095249;28;20081;-76
2023/10/13 10:32:44;;;;;;;22.17;6.68;;;;;;;17.57;100.00;100264.84;5086424;28;20055;-76
2023/10/13 10:35:20;;;;;;;14.77;6.60;;;;;;;17.56;100.00;100257.91;5094737;28;20052;-76
2023/10/13 10:37:49;;;;;;;12.20;5.65;;;;;;;17.55;100.00;100250.91;5085335;28;20349;-76
2023/10/13 10:40:32;;;;;;;;;;;;;;;17.56;100.00;100247.31;5089272;28;20257;-76
2023/10/13 10:43:00;;;;;;;17.77;6.28;;;;;;;17.56;100.00;100264.03;5090817;28;19911;-76
2023/10/13 10:45:32;;;;;;;19.95;6.72;;;;;;;17.57;100.00;100259.56;5090350;28;20032;-76
2023/10/13 10:47:58;;;;;;;14.35;6.97;;;;;;;17.59;100.00;100244.41;5088298;28;20039;-76
2023/10/13 10:50:35;;;;;;;19.58;6.57;;;;;;;17.61;100.00;100232.75;5083458;28;20080;-76
2023/10/13 10:53:08;;;;;;;13.80;6.65;;;;;;;17.63;100.00;100224.69;5088272;28;20095;-76
2023/10/13 10:55:36;;;;;;;13.38;6.18;;;;;;;17.64;100.00;100221.06;5086738;28;20036;-76
2023/10/13 10:58:06;;;;;;;14.07;6.25;;;;;;;17.67;100.00;100215.53;5086477;28;20050;-76
2023/10/13 11:00:45;;;;;;;16.20;6.45;;;;;;;17.69;100.00;100216.22;5087439;28;20038;-76
2023/10/13 11:03:11;;;;;;;12.68;6.50;;;;;;;17.73;100.00;100220.31;5090842;28;20093;-76
2023/10/13 11:05:46;;;;;;;18.65;6.60;;;;;;;17.75;100.00;100206.94;5083391;28;20040;-76
2023/10/13 11:08:31;;;;;;;15.95;6.38;;;;;;;17.80;100.00;100210.91;5084335;28;20046;-76
2023/10/13 11:11:05;;;;;;;13.23;6.00;;;;;;;17.81;100.00;100212.59;5082912;28;20310;-76
2023/10/13 11:13:50;;;;;;;16.23;6.63;;;;;;;17.85;100.00;100205.28;5084141;28;20788;-76
2023/10/13 11:16:24;;;;;;;19.95;6.65;;;;;;;17.90;100.00;100204.88;5087225;28;20028;-76
2023/10/13 11:19:00;;;;;;;11.63;5.75;;;;;;;17.93;100.00;100207.28;5090772;28;20032;-76
2023/10/13 11:21:30;;;;;;;19.27;6.90;;;;;;;17.93;100.00;100200.19;5089044;28;20032;-76
2023/10/13 11:24:08;;;;;;;13.60;6.53;;;;;;;17.95;100.00;100200.88;5087767;28;20040;-76
2023/10/13 11:26:50;;;;;;;18.98;6.38;;;;;;;17.95;100.00;100202.72;5087207;28;20119;-76
2023/10/13 11:29:18;;;;;;;19.52;5.97;;;;;;;17.95;100.00;100208.84;5091869;28;20035;-76
2023/10/13 11:31:44;;;;;;;;;;;;;;;17.94;100.00;100209.00;5091712;28;20062;-76
2023/10/13 11:34:11;;;;;;;20.58;6.22;;;;;;;17.95;100.00;100210.66;5092136;28;20204;-76
2023/10/13 11:36:37;;;;;;;15.32;5.85;;;;;;;17.96;100.00;100207.06;5089543;28;20032;-76
2023/10/13 11:39:02;;;;;;;25.02;7.43;;;;;;;17.96;100.00;100209.69;5084210;28;20074;-76
2023/10/13 11:41:35;;;;;;;15.15;6.32;;;;;;;17.95;100.00;100200.88;5084919;28;20089;-76
2023/10/13 11:44:13;;;;;;;16.90;6.38;;;;;;;17.97;100.00;100206.94;5088179;28;20036;-76
2023/10/13 11:51:47;;;;;;;16.58;7.03;;;;;;;17.99;100.00;100223.53;5084277;28;20040;-76
2023/10/13 11:54:21;;;;;;;20.05;6.72;;;;;;;17.98;100.00;100216.53;5087103;28;20327;-76
2023/10/13 11:56:48;;;;;;;23.40;6.57;;;;;;;17.99;100.00;100214.72;5079575;28;20110;-76
2023/10/13 11:59:24;;;;;;;15.57;5.80;;;;;;;18.00;100.00;100208.47;5084605;28;20133;-76
2023/10/13 12:04:51;;;;;;;10.88;6.13;;;;;;;18.01;100.00;100183.69;5088093;28;20298;-76
2023/10/13 12:07:19;;;;;;;19.55;6.95;;;;;;;18.03;100.00;100184.41;5089188;28;20202;-76
2023/10/13 12:12:20;;;;;;;17.33;5.57;;;;;;;18.08;100.00;100197.25;5088604;28;20057;-76
2023/10/13 12:14:57;;;;;;;22.48;7.25;;;;;;;18.07;100.00;100193.75;5085323;28;20059;-76
2023/10/13 12:17:34;;;;;;;18.92;6.47;;;;;;;18.09;100.00;100199.78;5079537;28;20367;-75
2023/10/13 12:20:32;;;;;;;14.43;6.22;;;;;;;18.09;100.00;100199.78;5089265;28;20032;-76
2023/10/13 12:22:55;;;;;;;21.85;6.50;;;;;;;18.05;100.00;100187.75;5082171;28;20048;-76
2023/10/13 12:28:06;;;;;;;26.10;6.53;;;;;;;18.10;100.00;100190.00;5084997;28;20063;-76
2023/10/13 12:30:50;;;;;;;14.63;6.90;;;;;;;18.07;100.00;100182.34;5086222;28;20043;-76
2023/10/13 12:33:23;;;;;;;13.07;6.70;;;;;;;18.06;100.00;100186.75;5079527;28;20099;-76
2023/10/13 12:52:16;;;;;;;17.10;6.30;;;;;;;18.00;100.00;100169.56;5091848;28;20282;-76
2023/10/13 12:54:46;;;;;;;17.75;6.93;;;;;;;18.04;100.00;100167.50;5081049;28;20066;-76
2023/10/13 12:57:13;;;;;;;17.15;6.45;;;;;;;18.04;100.00;100162.22;5083991;28;20950;-76
2023/10/13 12:59:38;;;;;;;14.70;6.88;;;;;;;18.03;100.00;100158.72;5086643;28;20043;-76
2023/10/13 13:02:07;;;;;;;14.40;6.15;;;;;;;18.03;100.00;100150.78;5078713;28;20280;-76
2023/10/13 13:04:36;;;;;;;16.23;7.00;;;;;;;18.05;100.00;100161.25;5078832;28;20203;-76
2023/10/13 13:07:05;;;;;;;14.63;6.70;;;;;;;18.07;100.00;100158.50;5088709;28;20327;-76
2023/10/13 13:09:30;;;;;;;;;;;;;;;18.06;100.00;100165.56;5083973;28;20036;-76
2023/10/13 13:11:59;;;;;;;16.38;6.47;;;;;;;18.04;100.00;100162.22;5082878;28;20091;-76
2023/10/13 13:14:31;;;;;;;15.35;6.93;;;;;;;18.03;100.00;100171.16;5084320;28;20101;-76
2023/10/13 13:17:04;;;;;;;19.90;6.85;;;;;;;18.03;100.00;100149.94;5085322;28;20081;-75
2023/10/13 13:19:41;;;;;;;16.45;7.10;;;;;;;18.04;100.00;100146.31;5085126;28;20043;-76
2023/10/13 13:22:14;;;;;;;11.95;5.70;;;;;;;18.04;100.00;100146.31;5083145;28;20071;-76
2023/10/13 13:24:43;;;;;;;17.73;7.35;;;;;;;18.06;100.00;100147.03;5087118;28;20040;-76
2023/10/13 13:27:19;;;;;;;13.40;6.95;;;;;;;18.06;100.00;100141.72;5084755;28;20101;-76
2023/10/13 13:29:45;;;;;;;21.02;6.85;;;;;;;18.03;100.00;100156.09;5088318;28;20220;-76
2023/10/13 13:32:18;;;;;;;17.55;7.00;;;;;;;18.08;100.00;100160.16;5088280;28;20059;-75
2023/10/13 13:34:44;;;;;;;17.42;7.07;;;;;;;18.06;100.00;100168.22;5083157;28;20291;-75
2023/10/13 13:37:12;;;;;;;18.42;7.35;;;;;;;18.08;100.00;100178.69;5081901;28;20258;-76
2023/10/13 13:39:43;;;;;;;15.45;6.95;;;;;;;18.06;100.00;100181.47;5078034;28;20089;-75
2023/10/13 13:42:09;;;;;;;21.73;7.60;;;;;;;18.05;100.00;100197.50;5076347;28;20058;-76
2023/10/13 13:44:37;;;;;;;16.30;7.13;;;;;;;18.03;100.00;100205.59;5081346;28;20047;-76
2023/10/13 13:47:11;;;;;;;22.13;7.15;;;;;;;18.01;100.00;100173.09;5080179;28;20136;-76
2023/10/13 13:49:40;;;;;;;13.40;7.82;;;;;;;17.97;100.00;100192.81;5088478;28;20031;-77
2023/10/13 13:52:05;;;;;;;;;;;;;;;17.92;100.00;100214.41;5083440;28;20028;-77
2023/10/13 13:54:31;;;;;;;14.20;6.68;;;;;;;17.87;100.00;100216.59;5073813;28;19916;-77
2023/10/13 13:56:57;;;;;;;15.57;6.80;;;;;;;17.83;100.00;100215.13;5085189;28;20035;-77
2023/10/13 13:59:22;;;;;;;19.73;7.40;;;;;;;17.78;100.00;100212.84;5084117;28;20266;-77
2023/10/13 14:01:48;;;;;;;13.43;6.32;;;;;;;17.75;100.00;100221.03;5091704;28;20316;-77
2023/10/13 14:04:17;;;;;;;16.70;6.43;;;;;;;17.70;100.00;100220.56;5090248;28;20331;-77
2023/10/13 14:06:44;;;;;;;15.57;6.68;;;;;;;17.65;100.00;100220.09;5093073;28;20382;-77
2023/10/13 14:09:15;;;;;;;13.20;5.60;;;;;;;17.64;100.00;100213.09;5090916;28;20107;-77
2023/10/13 14:16:53;;;;;;;11.15;4.20;;;;;;;17.57;100.00;100235.75;5091505;28;20036;-78
2023/10/13 14:19:19;;;;;;;18.60;4.55;;;;;;;17.56;100.00;100216.38;5094121;28;20343;-77
2023/10/13 14:21:53;;;;;;;13.25;4.20;;;;;;;17.58;100.00;100198.56;5087680;28;20043;-77
2023/10/13 14:24:27;;;;;;;16.00;4.60;;;;;;;17.55;100.00;100201.44;5094448;28;20032;-77
2023/10/13 14:26:56;;;;;;;14.10;3.97;;;;;;;17.54;100.00;100215.66;5086577;28;20032;-78
2023/10/13 14:29:21;;;;;;;22.90;5.47;;;;;;;17.48;100.00;100205.53;5089537;28;20043;-78
2023/10/13 14:31:49;;;;;;;19.00;5.30;;;;;;;17.46;100.00;100202.19;5090358;28;20095;-78
2023/10/13 14:34:17;;;;;;;14.75;5.00;;;;;;;17.48;100.00;100207.34;5082665;28;20028;-78
2023/10/13 14:36:48;;;;;;;14.80;4.18;;;;;;;17.50;100.00;100203.63;5091147;28;20103;-78
2023/10/13 14:39:14;;;;;;;15.20;4.88;;;;;;;17.53;100.00;100210.47;5090278;28;20052;-77
2023/10/13 14:41:39;;;;;;;23.02;5.70;;;;;;;17.55;100.00;100206.72;5095155;28;20234;-77
2023/10/13 14:44:05;;;;;;;19.70;6.82;;;;;;;17.54;100.00;100209.53;5090299;28;20036;-77
2023/10/13 14:46:31;;;;;;;21.88;6.35;;;;;;;17.52;100.00;100187.59;5087414;28;20024;-77
2023/10/13 14:48:56;;;;;;;14.98;5.55;;;;;;;17.51;100.00;100200.00;5092264;28;20200;-78
2023/10/13 14:51:22;;;;;;;27.73;7.35;;;;;;;17.52;100.00;100198.19;5090608;28;20140;-77
2023/10/13 14:53:47;;;;;;;28.75;7.32;;;;;;;17.51;100.00;100188.59;5083622;28;20040;-78
2023/10/13 14:56:17;;;;;;;20.38;6.78;;;;;;;17.50;100.00;100185.09;5081070;28;20047;-78
2023/10/13 14:58:43;;;;;;;24.70;6.60;;;;;;;17.51;100.00;100172.72;5087415;28;20044;-77